Saint Bonnet le Chateau (carte de Chantereine les Marais) (42) - D

Date : 23/06/2013
Distance : 3,400 km

Place Nom Licence Catégorie Club Temps min/km CN à J-60 Points Différence Nouveau CN
1 DROIN Solène 17925 D16 4201RA 0:27:34 8'06 5843 5176 -667 5846
2 HABERKORN Guilhem 11395 H14 2105BO 0:30:23 8'56 3314 4696 +1382 3841
3 GENNARO Mathis 22689 H14 3811RA 0:31:23 9'13 3567 4546 +979 3761
4 ROCHE Maxime 15418 H14 6911RA 0:32:31 9'33 3744 4388 +644 3973
5 BODY Mathilde 10184 D18 7305RA 0:33:10 9'45 5254 4302 -952 5135
6 VALETTE Marion 10430 D16 6913RA 0:33:43 9'55 4278 4231 -47 4569
7 BERRARD Anna 19762 D16 2607RA 0:35:49 10'32 4903 3983 -920 4729
8 PELLETIER Genevieve 10502 D50 6911RA 0:37:18 10'58 4461 3825 -636 4462
9 SEGUIN Simon 22019 H14 2105BO 0:38:25 11'17 2413 3714 +1301 2627
10 MASCARELL Henri 8928 H65 6911RA 0:39:01 11'28 5210 3657 -1553 5215
11 DUDOIGNON Chloé 18089 D16 2605RA 0:39:22 11'34 3749 3624 -125 4183
12 ANTOINE Alain 1270 H65 2605RA 0:39:41 11'40 4931 3595 -1336 4576
13 VALETTE Mathieu 12883 H14 6913RA 0:40:01 11'46 2577 3565 +988 2921
14 BASSET Juliette 12398 D16 6911RA 0:40:10 11'48 4047 3552 -495 4386
15 COUPAT Sabin 18397 H14 2606RA 0:40:31 11'55 2671 3521 +850 3312
16 ASTRADE Gaspard 15413 H14 7305RA 0:40:35 11'56 3650 3516 -134 3972
17 GENNARO Leslie 20863 D16 3811RA 0:41:33 12'13 3403 3434 +31 3392
18 MOREAU Merlin 19584 H14 2605RA 0:42:19 12'26 3164 3372 +208 3214
19 BONORA Lise 11543 D14 6906RA 0:42:50 12'35 3190 3331 +141 3190
20 VUITTON Marie 18842 D16 6911RA 0:43:06 12'40 4199 3310 -889 4345
21 BORNARD Julie 9402 D18 7305RA 0:44:12 13'00 4890 3228 -1662 4919
22 CORBIN Emma 20916 D16 2604RA 0:46:21 13'37 2799 3078 +279 3316
23 VOLAY André 751 H65 0111RA 0:46:43 13'44 3054 0
24 BONORA Marine 11542 D18 6906RA 0:47:01 13'49 3735 3034 -701 3817
25 FERRAND Elise 25011 D14 4203RA 0:47:06 13'51 2276 3029 +753 2491
26 LEVESY Salomé 23127 D16 3810RA 0:47:42 14'01 2648 2991 +343 2991
27 RIVOLLIER Isaline 22451 D18 4201RA 0:48:12 14'10 4116 2960 -1156 4200
28 BASSET Fiona 23384 D18 6911RA 0:48:35 14'17 4764 2937 -1827 4789
29 ANNE Brigitte 1672 D60 0111RA 0:48:39 14'18 3567 2933 -634 3115
30 LE GLAND Louise 22186 D14 7404RA 0:49:38 14'35 2446 2875 +429 2792
31 JOUZEAU Georges 9472 H60 7404RA 0:49:54 14'40 3694 2859 -835 0
32 VORWERK Marine 25746 D14 4201RA 0:50:23 14'49 1912 2832 +920 2405
33 COUPAT Gerard 146 H65 2606RA 0:50:34 14'52 3089 2821 -268 3163
34 DROUHIN Quentin 25866 H14 2607RA 0:50:39 14'53 2034 2817 +783 2410
35 DUFOUR Marcel 2343 H65 2604RA 0:50:39 14'53 2817 0
36 BLANC-COQUAND Ismaël 22666 H14 2607RA 0:50:44 14'55 1948 2812 +864 2111
37 ALLES Yann 26520 H14 2610RA 0:51:22 15'06 2081 2778 +697 2745
38 MARLIAC Solène 24984 D14 4203RA 0:51:33 15'09 1892 2768 +876 2039
39 GARON Elliot 21098 H14 2607RA 0:51:53 15'15 2341 2750 +409 2972
40 TOURNAIRE Pierre 29 H65 4204RA 0:52:38 15'28 2630 2711 +81 2671
41 HERITIER Mateo 17786 H14 4201RA 0:53:21 15'41 2674 2207
42 PLAGNE Eliane 20 D60 4204RA 0:54:10 15'55 0 2634 2383
43 XIMENEZ Lisa 19309 D14 3801RA 0:54:30 16'01 2064 2618 +554 2148
44 LAFANECHERE Tom 24414 H14 4203RA 0:55:29 16'19 1545 2571 +1026 0
45 REYNAUD Renée 8868 D55 6307AU 0:57:01 16'46 4013 2502 -1511 3768
46 JACOMINO Mireille 277 D50 3801RA 0:57:25 16'53 4145 2485 -1660 3688
47 DUDOIGNON Marine 17953 D14 2604RA 0:57:38 16'57 2330 2476 +146 2583
48 SCHMITT-POUPARD Florence 12056 D55 6913RA 0:58:26 17'11 3430 2442 -988 3041
49 GATY Daniele 841 D55 4203RA 0:59:15 17'25 3876 2408 -1468 3948
50 ARMAND Manon 26697 D14 2610RA 1:00:11 17'42 1757 2371 +614 1793
51 ZEMMACHE Noé 26888 H14 2610RA 1:00:34 17'48 0 2356 972
52 CORBIN Mariane 20915 D14 2604RA 1:00:48 17'52 1907 2347 +440 2345
53 ANTOINE Regis 1276 H70 7108BO 1:00:51 17'53 3619 2345 -1274 3550
54 COMBET Annie 813 D50 4203RA 1:01:25 18'03 4509 2323 -2186 4567
55 VILLEDIEU Martine 13752 D55 4201RA 1:01:32 18'05 3609 2319 -1290 3675
56 RIOFFRAY Alain 23 H60 4204RA 1:03:05 18'33 4030 2262 -1768 3946
57 EUZEN J-Paul 16403 H70 6911RA 1:03:09 18'34 3568 2259 -1309 3652
58 GREFF Maël 25096 H14 0111RA 1:03:29 18'40 2295 2247 -48 2199
59 BOURSEAUX Philippe 4081 H60 2605RA 1:03:30 18'40 3366 2247 -1119 3326
60 PLAGNE Christian 19 H65 4204RA 1:03:41 18'43 1676 2240 +564 1975
61 CHAILLARD Dana 12045 D16 7305RA 1:05:47 19'20 2546 2169 -377 2502
62 RAUCOULES Christine 258 D60 3811RA 1:06:33 19'34 2781 2144 -637 2173
63 ANNE Roger 1673 H65 0111RA 1:07:26 19'50 4440 2116 -2324 4093
64 GANDON J-Claude 249 H70 6906RA 1:08:06 20'01 3917 2095 -1822 3570
65 DELVA Lou 26620 D16 7407RA 1:13:23 21'35 2770 1944 -826 2770
66 ROUX Marie Françoise 25236 D55 4201RA 1:13:36 21'38 3907 1938 -1969 3820
67 PERREARD-GARIN Soraya 25343 D16 7407RA 1:17:19 22'44 2140 1845 -295 2354
68 DIDIER Marion 19566 D16 7305RA 1:21:57 24'06 3039 1741 -1298 3142
69 DUFOUR Marie 26623 D16 7407RA 1:23:20 24'30 2507 1712 -795 2786
70 FORAY Alexandre 25609 H35 3811RA 1:25:11 25'03 0 1675 0
71 FERRAND M-Christine 8626 D55 3811RA 1:26:00 25'17 2712 1659 -1053 1951
72 JOURDAN J-Marc 4596 H60 2605RA 1:26:04 25'18 0 1658 1592
73 HELIOT Claude 2349 H70 6906RA 1:29:32 26'20 3312 1594 -1718 3092
74 GUET Martine 11810 D60 6906RA 1:31:01 26'46 2828 1568 -1260 2737
75 GARON Perrine 21097 D16 2607RA 1:36:55 28'30 1954 1472 -482 2063
76 GROSJEAN Pierre 12354 H70 6913RA 1:43:21 30'23 0 1380 1976
77 GROSJEAN A-Marie 12059 D70 6913RA 1:43:58 30'34 2577 1372 -1205 2345
78 FLORI Anais 25326 D16 4201RA 1:48:34 31'55 0 1314 1479
79 BOUILLET Geneviève 8944 D60 3811RA 1:50:19 32'26 2499 1293 -1206 1520
80 VORWERK Camille 25747 D16 4201RA 2:08:33 37'48 1546 1110 -436 2231
DESCOURVIERES Valentine 26624 D14 7407RA abandon None 1534 0 1673
LALANNE Baptiste 24657 H14 2607RA pm None 1808 0 0
JOUNEAU Agathe 14402 D16 3810RA pm None 3497 0 3016
SUCHET Gaspard 15343 H14 4204RA pm None 2538 0 2538
DEROBERT-MAZURE Adrien 27266 H14 6307AU pm None 850 0 989
DESCOURVIERES Perrine 25550 D16 7407RA pm None 2435 0 2481
GINER Céline 27112 D35 4203RA pm None 0 0
JUILLAN Martine 9988 D14 3801RA pm None 1477 0 1562
RIOFFRAY Jacqueline 25 D60 4204RA pm None 2067 0 2067
nc MAGNE Thibaut 188 H21 4201RA 0:35:21 10'23